createdAt,value
2022-11-26T00:01:40.425Z,2.58
2022-11-26T00:04:09.343Z,2.03
2022-11-26T00:06:37.980Z,2.53
2022-11-26T00:09:05.949Z,1.42
2022-11-26T00:11:34.027Z,2.72
2022-11-26T00:14:01.658Z,1.60
2022-11-26T00:16:29.426Z,2.22
2022-11-26T00:18:57.156Z,3.42
2022-11-26T00:21:26.896Z,3.50
2022-11-26T00:23:54.486Z,1.42
2022-11-26T00:26:23.030Z,2.60
2022-11-26T00:28:51.976Z,1.52
2022-11-26T00:31:19.965Z,2.03
2022-11-26T00:33:47.633Z,2.33
2022-11-26T00:36:18.161Z,2.03
2022-11-26T00:38:47.508Z,2.65
2022-11-26T00:41:16.839Z,1.73
2022-11-26T00:43:44.977Z,1.13
2022-11-26T00:46:14.067Z,2.10
2022-11-26T00:48:41.835Z,1.67
2022-11-26T00:51:11.564Z,1.90
2022-11-26T00:53:39.132Z,1.45
2022-11-26T00:56:10.010Z,1.48
2022-11-26T00:58:37.834Z,2.13
2022-11-26T01:01:05.596Z,1.80
2022-11-26T01:03:33.269Z,2.05
2022-11-26T01:06:00.828Z,1.45
2022-11-26T01:08:30.152Z,3.13
2022-11-26T01:10:58.009Z,2.70
2022-11-26T01:13:27.001Z,1.63
2022-11-26T01:15:55.062Z,1.50
2022-11-26T01:18:22.793Z,1.95
2022-11-26T01:20:50.589Z,1.42
2022-11-26T01:23:19.077Z,1.40
2022-11-26T01:25:46.715Z,1.35
2022-11-26T01:28:15.189Z,2.15
2022-11-26T01:30:44.132Z,1.92
2022-11-26T01:33:11.761Z,1.70
2022-11-26T01:35:39.312Z,2.08
2022-11-26T01:38:06.889Z,2.75
2022-11-26T01:40:43.129Z,1.77
2022-11-26T01:43:13.708Z,1.95
2022-11-26T01:45:41.625Z,3.13
2022-11-26T01:48:26.407Z,1.73
2022-11-26T01:50:57.301Z,1.60
2022-11-26T01:53:30.428Z,1.58
2022-11-26T01:56:00.378Z,1.52
2022-11-26T01:58:30.028Z,2.38
2022-11-26T02:00:57.626Z,1.30
2022-11-26T02:03:26.567Z,2.22
2022-11-26T02:05:56.359Z,1.33
2022-11-26T02:08:24.264Z,2.03
2022-11-26T02:10:52.315Z,2.03
2022-11-26T02:13:19.891Z,1.35
2022-11-26T02:15:50.311Z,1.50
2022-11-26T02:18:17.868Z,1.83
2022-11-26T02:20:51.527Z,1.83
2022-11-26T02:23:42.516Z,1.30
2022-11-26T02:26:30.779Z,1.58
2022-11-26T02:29:15.811Z,1.60
2022-11-26T02:31:46.385Z,1.77
2022-11-26T02:34:16.362Z,1.60
2022-11-26T02:36:49.175Z,1.13
2022-11-26T02:39:18.783Z,1.60
2022-11-26T02:41:46.871Z,1.95
2022-11-26T02:44:15.004Z,3.10
2022-11-26T02:46:43.972Z,2.20
2022-11-26T02:49:11.689Z,2.00
2022-11-26T02:51:39.277Z,1.20
2022-11-26T02:54:07.125Z,1.15
2022-11-26T02:56:34.810Z,1.63
2022-11-26T02:59:02.437Z,1.23
2022-11-26T03:01:31.766Z,1.27
2022-11-26T03:04:02.704Z,1.15
2022-11-26T03:06:32.142Z,2.40
2022-11-26T03:08:59.729Z,1.33
2022-11-26T03:11:27.348Z,1.25
2022-11-26T03:13:55.063Z,1.25
2022-11-26T03:16:22.705Z,1.35
2022-11-26T03:18:50.369Z,1.23
2022-11-26T03:21:19.292Z,1.50
2022-11-26T03:23:46.855Z,1.63
2022-11-26T03:26:14.506Z,1.85
2022-11-26T03:28:42.068Z,1.25
2022-11-26T03:31:09.714Z,1.52
2022-11-26T03:33:37.292Z,1.30
2022-11-26T03:36:05.175Z,1.90
2022-11-26T03:38:34.082Z,1.67
2022-11-26T03:41:02.963Z,1.45
2022-11-26T03:43:30.522Z,1.42
2022-11-26T03:45:58.228Z,1.10
2022-11-26T03:48:25.941Z,1.55
2022-11-26T03:50:53.641Z,2.03
2022-11-26T03:53:21.331Z,1.13
2022-11-26T03:55:50.361Z,1.25
2022-11-26T03:58:17.913Z,1.40
2022-11-26T04:00:45.537Z,1.35
2022-11-26T04:03:13.120Z,1.17
2022-11-26T04:05:40.750Z,1.48
2022-11-26T04:08:08.353Z,3.15
2022-11-26T04:10:36.055Z,1.30
2022-11-26T04:13:05.019Z,1.20
2022-11-26T04:15:32.873Z,1.27
2022-11-26T04:18:00.563Z,1.55
2022-11-26T04:20:28.168Z,1.20
2022-11-26T04:22:55.831Z,2.15
2022-11-26T04:25:23.439Z,1.05
2022-11-26T04:27:50.999Z,1.13
2022-11-26T04:30:20.073Z,1.60
2022-11-26T04:32:47.629Z,1.33
2022-11-26T04:35:15.178Z,1.75
2022-11-26T04:37:43.021Z,1.33
2022-11-26T04:40:11.976Z,1.42
2022-11-26T04:42:39.567Z,0.85
2022-11-26T04:45:08.144Z,0.95
2022-11-26T04:47:42.620Z,1.05
2022-11-26T04:50:11.393Z,1.00
2022-11-26T04:52:38.918Z,1.33
2022-11-26T04:55:07.031Z,1.55
2022-11-26T04:57:34.639Z,1.23
2022-11-26T05:00:02.212Z,1.65
2022-11-26T05:02:29.851Z,1.27
2022-11-26T05:04:58.907Z,1.33
2022-11-26T05:07:26.550Z,1.58
2022-11-26T05:09:54.395Z,1.05
2022-11-26T05:12:22.076Z,1.02
2022-11-26T05:14:49.731Z,1.65
2022-11-26T05:17:17.289Z,1.55
2022-11-26T05:19:44.886Z,1.08
2022-11-26T05:22:13.899Z,1.15
2022-11-26T05:24:41.457Z,1.20
2022-11-26T05:27:09.123Z,1.80
2022-11-26T05:29:36.719Z,1.63
2022-11-26T05:32:04.533Z,1.05
2022-11-26T05:34:32.480Z,1.20
2022-11-26T05:37:00.100Z,1.15
2022-11-26T05:39:29.263Z,1.27
2022-11-26T05:41:56.834Z,1.75
2022-11-26T05:44:24.398Z,1.48
2022-11-26T05:46:51.955Z,1.00
2022-11-26T05:49:19.523Z,1.10
2022-11-26T05:51:47.112Z,1.00
2022-11-26T05:54:14.890Z,1.58
2022-11-26T05:56:44.212Z,0.93
2022-11-26T05:59:11.964Z,1.27
2022-11-26T06:01:39.522Z,1.17
2022-11-26T06:04:07.111Z,1.40
2022-11-26T06:06:34.669Z,1.55
2022-11-26T06:09:02.292Z,1.10
2022-11-26T06:11:29.832Z,1.88
2022-11-26T06:13:58.755Z,1.00
2022-11-26T06:16:26.699Z,1.75
2022-11-26T06:18:54.348Z,1.27
2022-11-26T06:21:21.877Z,1.38
2022-11-26T06:23:55.965Z,0.80
2022-11-26T06:26:26.613Z,1.02
2022-11-26T06:28:54.178Z,1.20
2022-11-26T06:31:23.162Z,1.40
2022-11-26T06:33:54.331Z,1.40
2022-11-26T06:36:21.944Z,1.38
2022-11-26T06:38:49.535Z,0.90
2022-11-26T06:41:17.222Z,1.20
2022-11-26T06:43:44.811Z,1.00
2022-11-26T06:46:12.756Z,1.00
2022-11-26T06:48:41.664Z,1.48
2022-11-26T06:51:10.124Z,1.00
2022-11-26T06:53:37.708Z,1.23
2022-11-26T06:56:06.368Z,1.30
2022-11-26T06:58:33.993Z,1.65
2022-11-26T07:01:01.671Z,1.50
2022-11-26T07:03:33.237Z,1.25
2022-11-26T07:06:02.466Z,1.15
2022-11-26T07:08:30.246Z,1.88
2022-11-26T07:10:57.916Z,1.30
2022-11-26T07:13:25.504Z,0.88
2022-11-26T07:15:53.126Z,1.10
2022-11-26T07:18:20.808Z,1.23
2022-11-26T07:20:48.414Z,0.95
2022-11-26T07:23:17.461Z,1.58
2022-11-26T07:25:45.116Z,1.15
2022-11-26T07:28:12.774Z,1.20
2022-11-26T07:30:40.471Z,1.08
2022-11-26T07:33:08.096Z,1.15
2022-11-26T07:35:35.680Z,0.98
2022-11-26T07:38:03.356Z,1.55
2022-11-26T07:40:32.293Z,0.90
2022-11-26T07:43:00.441Z,0.85
2022-11-26T07:45:28.059Z,0.80
2022-11-26T07:47:55.646Z,1.00
2022-11-26T07:50:23.241Z,0.90
2022-11-26T07:52:52.772Z,1.80
2022-11-26T07:55:20.426Z,0.85
2022-11-26T07:57:49.451Z,2.75
2022-11-26T08:00:18.322Z,3.80
2022-11-26T08:02:46.019Z,2.40
2022-11-26T08:05:13.721Z,3.70
2022-11-26T08:07:41.327Z,5.60
2022-11-26T08:10:09.757Z,2.00
2022-11-26T08:12:37.632Z,2.55
2022-11-26T08:15:07.601Z,1.60
2022-11-26T08:17:35.233Z,2.13
2022-11-26T08:20:02.827Z,3.30
2022-11-26T08:22:30.612Z,3.22
2022-11-26T08:24:58.256Z,4.25
2022-11-26T08:27:26.015Z,3.83
2022-11-26T08:29:53.625Z,4.10
2022-11-26T08:32:22.636Z,4.95
2022-11-26T08:34:50.212Z,3.63
2022-11-26T08:37:17.798Z,3.28
2022-11-26T08:39:45.453Z,4.22
2022-11-26T08:42:13.108Z,2.75
2022-11-26T08:44:40.953Z,4.47
2022-11-26T08:47:08.779Z,4.07
2022-11-26T08:49:37.773Z,2.70
2022-11-26T08:52:05.844Z,3.80
2022-11-26T08:54:33.580Z,3.70
2022-11-26T08:57:01.188Z,3.30
2022-11-26T08:59:28.799Z,2.13
2022-11-26T09:01:56.446Z,2.85
2022-11-26T09:04:24.115Z,2.28
2022-11-26T09:06:53.098Z,4.03
2022-11-26T09:09:20.744Z,4.70
2022-11-26T09:11:49.361Z,5.93
2022-11-26T09:14:17.932Z,4.70
2022-11-26T09:16:45.763Z,3.10
2022-11-26T09:19:14.087Z,4.47
2022-11-26T09:21:41.780Z,4.40
2022-11-26T09:24:10.753Z,4.28
2022-11-26T09:26:38.339Z,4.00
2022-11-26T09:29:06.155Z,4.40
2022-11-26T09:31:33.800Z,3.88
2022-11-26T09:34:02.332Z,3.92
2022-11-26T09:36:29.916Z,4.70
2022-11-26T09:38:57.687Z,5.55
2022-11-26T09:41:34.088Z,7.82
2022-11-26T09:44:20.862Z,4.53
2022-11-26T09:47:10.913Z,7.63
2022-11-26T09:49:40.579Z,8.93
2022-11-26T09:52:08.479Z,4.68
2022-11-26T09:54:36.419Z,7.53
2022-11-26T09:57:10.252Z,4.45
2022-11-26T09:59:37.988Z,3.72
2022-11-26T10:02:11.519Z,2.42
2022-11-26T10:04:40.846Z,3.58
2022-11-26T10:07:12.236Z,2.25
2022-11-26T10:09:49.979Z,4.53
2022-11-26T10:12:26.546Z,6.03
2022-11-26T10:14:57.264Z,2.47
2022-11-26T10:17:36.974Z,4.60
2022-11-26T10:20:40.516Z,2.78
2022-11-26T10:23:12.233Z,3.42
2022-11-26T10:25:42.480Z,4.07
2022-11-26T10:28:16.316Z,3.50
2022-11-26T10:30:43.916Z,3.65
2022-11-26T10:33:13.107Z,2.33
2022-11-26T10:35:40.654Z,2.88
2022-11-26T10:38:09.530Z,4.43
2022-11-26T10:40:37.349Z,3.63
2022-11-26T10:43:13.114Z,3.40
2022-11-26T10:45:43.306Z,3.65
2022-11-26T10:48:21.029Z,5.20
2022-11-26T10:51:02.822Z,3.05
2022-11-26T10:53:31.998Z,3.28
2022-11-26T10:56:00.146Z,3.25
2022-11-26T10:58:28.174Z,3.95
2022-11-26T11:00:59.005Z,1.63
2022-11-26T11:03:59.771Z,3.10
2022-11-26T11:06:28.059Z,3.90
2022-11-26T11:08:55.676Z,2.53
2022-11-26T11:11:24.177Z,3.50
2022-11-26T11:13:51.835Z,2.50
2022-11-26T11:16:26.245Z,2.38
2022-11-26T11:18:56.060Z,3.00
2022-11-26T11:21:30.385Z,3.65
2022-11-26T11:24:09.069Z,3.17
2022-11-26T11:26:41.160Z,2.58
2022-11-26T11:29:24.049Z,2.33
2022-11-26T11:31:53.156Z,2.88
2022-11-26T11:34:21.480Z,2.15
2022-11-26T11:36:59.284Z,1.63
2022-11-26T11:39:30.336Z,1.95
2022-11-26T11:41:58.854Z,2.15
2022-11-26T11:44:27.676Z,2.90
2022-11-26T11:47:06.978Z,7.25
2022-11-26T11:49:44.547Z,2.08
2022-11-26T11:52:16.909Z,2.60
2022-11-26T11:54:49.577Z,2.72
2022-11-26T11:57:20.904Z,2.47
2022-11-26T12:00:08.411Z,2.92
2022-11-26T12:03:01.013Z,3.35
2022-11-26T12:05:48.681Z,2.53
2022-11-26T12:08:25.323Z,2.50
2022-11-26T12:10:57.831Z,3.22
2022-11-26T12:13:25.385Z,4.30
2022-11-26T12:15:53.842Z,2.20
2022-11-26T12:18:24.446Z,5.10
2022-11-26T12:20:53.342Z,3.33
2022-11-26T12:23:27.360Z,3.70
2022-11-26T12:25:57.419Z,2.88
2022-11-26T12:28:26.413Z,4.53
2022-11-26T12:30:55.918Z,1.92
2022-11-26T12:33:27.803Z,6.18
2022-11-26T12:35:56.554Z,5.25
2022-11-26T12:38:26.339Z,1.70
2022-11-26T12:40:57.956Z,1.75
2022-11-26T12:43:28.093Z,1.95
2022-11-26T12:45:57.615Z,3.58
2022-11-26T12:48:32.688Z,3.25
2022-11-26T12:51:02.332Z,4.78
2022-11-26T12:53:35.092Z,1.98
2022-11-26T12:56:06.923Z,3.22
2022-11-26T12:58:40.460Z,2.33
2022-11-26T13:01:09.562Z,2.72
2022-11-26T13:03:38.549Z,2.63
2022-11-26T13:06:09.662Z,3.30
2022-11-26T13:08:42.462Z,3.10
2022-11-26T13:11:17.944Z,3.35
2022-11-26T13:13:49.200Z,2.88
2022-11-26T13:16:21.975Z,5.13
2022-11-26T13:18:51.868Z,3.22
2022-11-26T13:21:28.608Z,2.13
2022-11-26T13:24:05.117Z,4.25
2022-11-26T13:26:49.385Z,1.52
2022-11-26T13:29:39.244Z,2.33
2022-11-26T13:32:19.728Z,2.45
2022-11-26T13:35:01.699Z,3.50
2022-11-26T13:37:39.288Z,4.63
2022-11-26T13:40:37.828Z,2.78
2022-11-26T13:43:25.435Z,5.95
2022-11-26T13:46:06.469Z,2.03
2022-11-26T13:48:38.040Z,3.50
2022-11-26T13:51:08.462Z,3.13
2022-11-26T13:53:37.613Z,2.67
2022-11-26T13:56:06.535Z,2.22
2022-11-26T13:58:36.019Z,2.58
2022-11-26T14:01:28.878Z,2.10
2022-11-26T14:03:56.760Z,2.45
2022-11-26T14:06:27.892Z,1.83
2022-11-26T14:08:55.433Z,4.05
2022-11-26T14:11:56.775Z,10.05
2022-11-26T14:14:34.532Z,3.80
2022-11-26T14:17:19.561Z,4.95
2022-11-26T14:20:03.883Z,3.67
2022-11-26T14:22:33.635Z,2.22
2022-11-26T14:25:02.601Z,12.93
2022-11-26T14:27:32.299Z,7.35
2022-11-26T14:30:19.486Z,6.82
2022-11-26T14:32:49.335Z,6.38
2022-11-26T14:35:19.514Z,9.43
2022-11-26T14:37:53.527Z,6.07
2022-11-26T14:40:23.526Z,7.78
2022-11-26T14:43:06.945Z,4.05
2022-11-26T14:45:34.529Z,3.72
2022-11-26T14:48:02.184Z,4.38
2022-11-26T14:50:30.856Z,4.53
2022-11-26T14:53:00.686Z,3.40
2022-11-26T14:55:30.233Z,3.70
2022-11-26T14:57:58.630Z,3.92
2022-11-26T15:00:27.164Z,5.80
2022-11-26T15:02:55.050Z,3.72
2022-11-26T15:05:24.254Z,7.80
2022-11-26T15:08:00.056Z,3.63
2022-11-26T15:10:29.064Z,5.90
2022-11-26T15:13:02.319Z,4.15
2022-11-26T15:15:29.953Z,3.92
2022-11-26T15:17:58.856Z,5.38
2022-11-26T15:20:26.487Z,7.32
2022-11-26T15:22:54.712Z,7.20
2022-11-26T15:25:26.111Z,4.35
2022-11-26T15:27:56.034Z,9.02
2022-11-26T15:30:24.763Z,5.38
2022-11-26T15:32:57.668Z,4.45
2022-11-26T15:35:25.240Z,3.35
2022-11-26T15:37:52.804Z,4.25
2022-11-26T15:40:23.604Z,3.20
2022-11-26T15:42:52.826Z,7.47
2022-11-26T15:45:21.529Z,5.47
2022-11-26T15:47:49.666Z,7.40
2022-11-26T15:50:23.059Z,5.00
2022-11-26T15:52:50.776Z,5.05
2022-11-26T15:55:20.894Z,8.57
2022-11-26T15:57:50.936Z,4.47
2022-11-26T16:00:22.551Z,5.07
2022-11-26T16:02:51.993Z,4.10
2022-11-26T16:05:24.185Z,6.13
2022-11-26T16:07:59.499Z,4.93
2022-11-26T16:10:28.144Z,5.50
2022-11-26T16:13:19.645Z,4.38
2022-11-26T16:15:59.023Z,4.45
2022-11-26T16:18:29.578Z,5.57
2022-11-26T16:21:04.771Z,3.38
2022-11-26T16:23:32.438Z,8.90
2022-11-26T16:26:11.448Z,6.97
2022-11-26T16:28:40.418Z,7.97
2022-11-26T16:31:08.061Z,10.35
2022-11-26T16:33:35.725Z,12.88
2022-11-26T16:36:03.336Z,267.92
2022-11-26T16:38:30.902Z,795.53
2022-11-26T16:40:58.510Z,589.08
2022-11-26T16:43:26.109Z,574.38
2022-11-26T16:45:55.690Z,545.28
2022-11-26T16:48:24.670Z,526.25
2022-11-26T16:50:52.631Z,511.45
2022-11-26T16:53:20.152Z,512.13
2022-11-26T16:55:49.647Z,491.83
2022-11-26T16:58:26.951Z,487.38
2022-11-26T17:00:56.235Z,476.65
2022-11-26T17:03:23.985Z,454.15
2022-11-26T17:05:52.289Z,464.92
2022-11-26T17:08:19.839Z,454.70
2022-11-26T17:10:47.915Z,442.08
2022-11-26T17:13:15.526Z,140.57
2022-11-26T17:15:43.319Z,149.25
2022-11-26T17:18:18.851Z,183.73
2022-11-26T17:20:46.415Z,277.42
2022-11-26T17:23:13.983Z,242.93
2022-11-26T17:25:41.615Z,243.10
2022-11-26T17:28:11.649Z,244.48
2022-11-26T17:30:39.603Z,233.20
2022-11-26T17:33:07.348Z,222.27
2022-11-26T17:35:36.336Z,228.93
2022-11-26T17:38:03.922Z,212.93
2022-11-26T17:40:31.548Z,231.85
2022-11-26T17:42:59.200Z,210.35
2022-11-26T17:45:26.787Z,213.30
2022-11-26T17:47:54.336Z,214.38
2022-11-26T17:50:23.207Z,205.65
2022-11-26T17:52:52.534Z,194.90
2022-11-26T17:55:20.438Z,195.13
2022-11-26T17:57:47.988Z,199.40
2022-11-26T18:00:17.543Z,171.05
2022-11-26T18:02:46.207Z,112.43
2022-11-26T18:05:13.891Z,112.45
2022-11-26T18:07:41.470Z,114.65
2022-11-26T18:10:11.715Z,104.35
2022-11-26T18:12:39.533Z,118.40
2022-11-26T18:15:07.718Z,105.22
2022-11-26T18:17:35.271Z,102.97
2022-11-26T18:20:02.848Z,127.10
2022-11-26T18:22:30.569Z,125.50
2022-11-26T18:24:58.247Z,132.80
2022-11-26T18:27:29.107Z,125.88
2022-11-26T18:29:56.696Z,121.43
2022-11-26T18:32:24.288Z,131.05
2022-11-26T18:34:51.910Z,126.50
2022-11-26T18:37:19.578Z,124.18
2022-11-26T18:39:47.154Z,122.13
2022-11-26T18:42:36.107Z,134.07
2022-11-26T18:45:03.684Z,127.22
2022-11-26T18:47:31.312Z,126.55
2022-11-26T18:49:58.974Z,118.68
2022-11-26T18:52:26.560Z,117.88
2022-11-26T18:54:54.110Z,120.55
2022-11-26T18:57:21.664Z,112.07
2022-11-26T18:59:50.416Z,111.75
2022-11-26T19:02:19.453Z,106.20
2022-11-26T19:04:47.153Z,110.93
2022-11-26T19:07:15.555Z,118.40
2022-11-26T19:09:43.476Z,102.10
2022-11-26T19:12:11.232Z,109.38
2022-11-26T19:14:38.776Z,102.45
2022-11-26T19:17:06.420Z,99.55
2022-11-26T19:19:35.847Z,110.15
2022-11-26T19:22:03.379Z,93.88
2022-11-26T19:24:31.055Z,98.05
2022-11-26T19:26:58.664Z,99.38
2022-11-26T19:29:26.393Z,103.68
2022-11-26T19:31:53.943Z,100.60
2022-11-26T19:34:21.500Z,94.97
2022-11-26T19:36:53.151Z,100.80
2022-11-26T19:39:20.786Z,94.55
2022-11-26T19:41:48.363Z,91.70
2022-11-26T19:44:15.922Z,101.75
2022-11-26T19:46:43.492Z,83.05
2022-11-26T19:49:11.894Z,91.18
2022-11-26T19:51:39.484Z,79.95
2022-11-26T19:54:08.468Z,88.47
2022-11-26T19:56:36.378Z,85.25
2022-11-26T19:59:04.104Z,84.18
2022-11-26T20:01:32.545Z,81.60
2022-11-26T20:04:00.378Z,79.15
2022-11-26T20:06:28.339Z,78.90
2022-11-26T20:08:56.024Z,80.90
2022-11-26T20:11:25.032Z,78.85
2022-11-26T20:13:52.758Z,79.60
2022-11-26T20:16:21.865Z,71.10
2022-11-26T20:18:49.617Z,73.95
2022-11-26T20:21:19.617Z,68.50
2022-11-26T20:23:47.342Z,70.45
2022-11-26T20:26:16.988Z,25.38
2022-11-26T20:28:46.028Z,31.92
2022-11-26T20:31:16.269Z,27.23
2022-11-26T20:33:45.847Z,33.35
2022-11-26T20:36:14.771Z,33.38
2022-11-26T20:38:42.328Z,38.83
2022-11-26T20:41:10.339Z,41.83
2022-11-26T20:43:38.122Z,42.13
2022-11-26T20:46:07.656Z,40.08
2022-11-26T20:48:35.749Z,36.88
2022-11-26T20:51:03.673Z,40.13
2022-11-26T20:53:31.338Z,36.38
2022-11-26T20:55:58.895Z,39.08
2022-11-26T20:58:26.878Z,36.83
2022-11-26T21:00:54.870Z,37.60
2022-11-26T21:03:24.184Z,37.50
2022-11-26T21:05:51.943Z,34.92
2022-11-26T21:08:19.637Z,34.95
2022-11-26T21:10:47.295Z,37.25
2022-11-26T21:13:16.451Z,32.03
2022-11-26T21:15:44.289Z,30.30
2022-11-26T21:18:11.972Z,40.08
2022-11-26T21:20:41.211Z,34.42
2022-11-26T21:23:09.022Z,29.75
2022-11-26T21:25:37.912Z,32.58
2022-11-26T21:28:05.983Z,32.10
2022-11-26T21:30:33.648Z,33.40
2022-11-26T21:33:05.829Z,30.70
2022-11-26T21:35:36.648Z,31.25
2022-11-26T21:38:05.924Z,31.20
2022-11-26T21:40:33.596Z,28.45
2022-11-26T21:43:01.382Z,28.75
2022-11-26T21:45:29.172Z,26.17
2022-11-26T21:47:56.837Z,26.98
2022-11-26T21:50:24.461Z,25.48
2022-11-26T21:52:52.479Z,26.90
2022-11-26T21:55:22.104Z,25.77
2022-11-26T21:57:49.978Z,25.85
2022-11-26T22:00:18.984Z,25.52
2022-11-26T22:02:46.636Z,29.15
2022-11-26T22:05:14.288Z,26.85
2022-11-26T22:07:42.129Z,22.85
2022-11-26T22:10:11.107Z,21.40
2022-11-26T22:12:40.204Z,21.77
2022-11-26T22:15:09.051Z,23.17
2022-11-26T22:17:36.769Z,30.90
2022-11-26T22:20:04.634Z,24.88
2022-11-26T22:22:32.324Z,22.67
2022-11-26T22:25:00.017Z,24.35
2022-11-26T22:27:28.095Z,24.05
2022-11-26T22:29:57.215Z,20.40
2022-11-26T22:32:24.934Z,20.50
2022-11-26T22:34:52.647Z,22.15
2022-11-26T22:37:20.437Z,21.17
2022-11-26T22:39:52.525Z,21.17
2022-11-26T22:42:21.744Z,21.73
2022-11-26T22:44:49.337Z,20.08
2022-11-26T22:47:18.413Z,21.17
2022-11-26T22:49:46.250Z,20.77
2022-11-26T22:52:13.954Z,21.50
2022-11-26T22:54:41.641Z,17.63
2022-11-26T22:57:09.445Z,18.60
2022-11-26T22:59:37.599Z,19.67
2022-11-26T23:02:05.689Z,17.73
2022-11-26T23:04:34.753Z,17.23
2022-11-26T23:07:02.467Z,17.95
2022-11-26T23:09:30.223Z,15.05
2022-11-26T23:11:58.081Z,15.90
2022-11-26T23:14:25.717Z,17.33
2022-11-26T23:16:53.458Z,17.27
2022-11-26T23:19:21.210Z,14.35
2022-11-26T23:21:50.350Z,15.13
2022-11-26T23:24:18.028Z,16.20
2022-11-26T23:26:45.875Z,15.60
2022-11-26T23:29:13.643Z,16.05
2022-11-26T23:31:43.593Z,15.77
2022-11-26T23:34:11.623Z,15.65
2022-11-26T23:36:39.266Z,12.65
2022-11-26T23:39:10.416Z,14.25
2022-11-26T23:41:38.175Z,14.57
2022-11-26T23:44:06.240Z,14.98
2022-11-26T23:46:35.307Z,15.18
2022-11-26T23:49:03.341Z,15.10
2022-11-26T23:51:32.206Z,13.85
2022-11-26T23:53:59.901Z,13.40
2022-11-26T23:56:29.830Z,13.85
2022-11-26T23:58:59.539Z,13.63
